sensor_id;sensor_type;location;lat;lon;timestamp;pressure;altitude;pressure_sealevel;temperature;humidity
78741;BME280;68062;48.726;9.370;2023-05-14T00:01:52;98735.25;;;10.45;100.00
78741;BME280;68062;48.726;9.370;2023-05-14T00:04:20;98694.13;;;10.05;100.00
78741;BME280;68062;48.726;9.370;2023-05-14T00:06:47;98730.97;;;10.20;100.00
78741;BME280;68062;48.726;9.370;2023-05-14T00:09:14;98727.53;;;10.27;100.00
78741;BME280;68062;48.726;9.370;2023-05-14T00:11:41;98726.66;;;10.14;100.00
78741;BME280;68062;48.726;9.370;2023-05-14T00:14:07;98718.97;;;10.06;100.00
78741;BME280;68062;48.726;9.370;2023-05-14T00:16:34;98718.13;;;10.07;100.00
78741;BME280;68062;48.726;9.370;2023-05-14T00:19:00;98712.94;;;10.30;100.00
78741;BME280;68062;48.726;9.370;2023-05-14T00:21:28;98714.66;;;10.36;100.00
78741;BME280;68062;48.726;9.370;2023-05-14T00:23:55;98715.50;;;10.54;100.00
78741;BME280;68062;48.726;9.370;2023-05-14T00:26:22;98706.09;;;10.45;100.00
78741;BME280;68062;48.726;9.370;2023-05-14T00:28:49;98699.22;;;10.38;100.00
78741;BME280;68062;48.726;9.370;2023-05-14T00:31:16;98700.94;;;10.29;100.00
78741;BME280;68062;48.726;9.370;2023-05-14T00:33:43;98691.50;;;10.38;100.00
78741;BME280;68062;48.726;9.370;2023-05-14T00:36:10;98690.69;;;10.17;100.00
78741;BME280;68062;48.726;9.370;2023-05-14T00:38:38;98690.69;;;10.17;100.00
78741;BME280;68062;48.726;9.370;2023-05-14T00:41:06;98693.28;;;9.97;100.00
78741;BME280;68062;48.726;9.370;2023-05-14T00:43:33;98692.41;;;9.84;100.00
78741;BME280;68062;48.726;9.370;2023-05-14T00:45:59;98689.00;;;9.94;100.00
78741;BME280;68062;48.726;9.370;2023-05-14T00:48:26;98695.84;;;10.05;100.00
78741;BME280;68062;48.726;9.370;2023-05-14T00:50:53;98689.84;;;10.02;100.00
78741;BME280;68062;48.726;9.370;2023-05-14T00:53:20;98691.56;;;9.96;100.00
78741;BME280;68062;48.726;9.370;2023-05-14T00:55:48;98693.28;;;9.56;100.00
78741;BME280;68062;48.726;9.370;2023-05-14T00:58:16;98679.56;;;9.48;100.00
78741;BME280;68062;48.726;9.370;2023-05-14T01:00:43;98685.56;;;9.47;100.00
78741;BME280;68062;48.726;9.370;2023-05-14T01:03:10;98683.84;;;9.49;100.00
78741;BME280;68062;48.726;9.370;2023-05-14T01:05:42;98687.22;;;9.37;100.00
78741;BME280;68062;48.726;9.370;2023-05-14T01:08:17;98680.34;;;9.16;100.00
78741;BME280;68062;48.726;9.370;2023-05-14T01:10:51;98682.00;;;8.88;100.00
78741;BME280;68062;48.726;9.370;2023-05-14T01:13:26;98647.78;;;8.90;100.00
78741;BME280;68062;48.726;9.370;2023-05-14T01:15:55;98680.34;;;9.05;100.00
78741;BME280;68062;48.726;9.370;2023-05-14T01:18:23;98673.53;;;9.13;100.00
78741;BME280;68062;48.726;9.370;2023-05-14T01:20:50;98677.81;;;9.24;100.00
78741;BME280;68062;48.726;9.370;2023-05-14T01:23:18;98676.94;;;9.16;100.00
78741;BME280;68062;48.726;9.370;2023-05-14T01:25:45;98679.50;;;9.17;100.00
78741;BME280;68062;48.726;9.370;2023-05-14T01:28:14;98681.19;;;9.01;100.00
78741;BME280;68062;48.726;9.370;2023-05-14T01:30:46;98671.63;;;8.67;100.00
78741;BME280;68062;48.726;9.370;2023-05-14T01:33:15;98679.41;;;8.85;100.00
78741;BME280;68062;48.726;9.370;2023-05-14T01:35:43;98684.47;;;8.67;100.00
78741;BME280;68062;48.726;9.370;2023-05-14T01:38:12;98692.22;;;8.80;100.00
78741;BME280;68062;48.726;9.370;2023-05-14T01:40:41;98683.66;;;8.73;100.00
78741;BME280;68062;48.726;9.370;2023-05-14T01:43:09;98683.59;;;8.62;100.00
78741;BME280;68062;48.726;9.370;2023-05-14T01:45:36;98679.44;;;8.88;100.00
78741;BME280;68062;48.726;9.370;2023-05-14T01:48:03;98681.13;;;8.87;100.00
78741;BME280;68062;48.726;9.370;2023-05-14T01:50:30;98676.78;;;8.69;100.00
78741;BME280;68062;48.726;9.370;2023-05-14T01:52:57;98666.63;;;8.94;100.00
78741;BME280;68062;48.726;9.370;2023-05-14T01:55:26;98662.31;;;8.88;100.00
78741;BME280;68062;48.726;9.370;2023-05-14T01:57:54;98662.25;;;8.66;100.00
78741;BME280;68062;48.726;9.370;2023-05-14T02:00:22;98661.41;;;8.74;100.00
78741;BME280;68062;48.726;9.370;2023-05-14T02:02:49;98663.09;;;8.64;100.00
78741;BME280;68062;48.726;9.370;2023-05-14T02:05:16;98663.81;;;8.44;100.00
78741;BME280;68062;48.726;9.370;2023-05-14T02:07:43;98664.78;;;8.63;100.00
78741;BME280;68062;48.726;9.370;2023-05-14T02:10:09;98670.81;;;8.70;100.00
78741;BME280;68062;48.726;9.370;2023-05-14T02:12:36;98652.72;;;8.45;100.00
78741;BME280;68062;48.726;9.370;2023-05-14T02:15:06;98671.50;;;8.44;100.00
78741;BME280;68062;48.726;9.370;2023-05-14T02:17:34;98673.19;;;8.39;100.00
78741;BME280;68062;48.726;9.370;2023-05-14T02:20:01;98676.69;;;8.50;100.00
78741;BME280;68062;48.726;9.370;2023-05-14T02:22:28;98674.28;;;8.78;100.00
78741;BME280;68062;48.726;9.370;2023-05-14T02:24:55;98671.72;;;8.89;100.00
78741;BME280;68062;48.726;9.370;2023-05-14T02:27:22;98670.00;;;8.88;100.00
78741;BME280;68062;48.726;9.370;2023-05-14T02:29:48;98673.44;;;8.87;100.00
78741;BME280;68062;48.726;9.370;2023-05-14T02:32:16;98675.13;;;8.77;100.00
78741;BME280;68062;48.726;9.370;2023-05-14T02:34:43;98669.19;;;8.97;100.00
78741;BME280;68062;48.726;9.370;2023-05-14T02:37:10;98665.78;;;9.01;100.00
78741;BME280;68062;48.726;9.370;2023-05-14T02:39:37;98672.69;;;9.18;100.00
78741;BME280;68062;48.726;9.370;2023-05-14T02:42:05;98670.09;;;9.05;100.00
78741;BME280;68062;48.726;9.370;2023-05-14T02:44:32;98673.53;;;9.10;100.00
78741;BME280;68062;48.726;9.370;2023-05-14T02:46:59;98679.47;;;8.97;100.00
78741;BME280;68062;48.726;9.370;2023-05-14T02:49:27;98678.56;;;8.86;100.00
78741;BME280;68062;48.726;9.370;2023-05-14T02:51:54;98678.59;;;8.89;100.00
78741;BME280;68062;48.726;9.370;2023-05-14T02:54:20;98681.13;;;8.87;100.00
78741;BME280;68062;48.726;9.370;2023-05-14T02:56:47;98671.78;;;9.08;100.00
78741;BME280;68062;48.726;9.370;2023-05-14T02:59:14;98678.63;;;8.98;100.00
78741;BME280;68062;48.726;9.370;2023-05-14T03:01:40;98672.63;;;8.99;100.00
78741;BME280;68062;48.726;9.370;2023-05-14T03:04:07;98673.50;;;9.06;100.00
78741;BME280;68062;48.726;9.370;2023-05-14T03:06:35;98667.53;;;9.13;100.00
78741;BME280;68062;48.726;9.370;2023-05-14T03:09:01;98674.38;;;9.16;100.00
78741;BME280;68062;48.726;9.370;2023-05-14T03:11:28;98682.94;;;9.25;100.00
78741;BME280;68062;48.726;9.370;2023-05-14T03:13:55;98677.81;;;9.21;100.00
78741;BME280;68062;48.726;9.370;2023-05-14T03:16:22;98679.53;;;9.33;100.00
78741;BME280;68062;48.726;9.370;2023-05-14T03:18:48;98676.16;;;9.55;100.00
78741;BME280;68062;48.726;9.370;2023-05-14T03:21:15;98677.84;;;9.58;100.00
78741;BME280;68062;48.726;9.370;2023-05-14T03:23:44;98675.28;;;9.49;100.00
78741;BME280;68062;48.726;9.370;2023-05-14T03:26:10;98667.59;;;9.63;100.00
78741;BME280;68062;48.726;9.370;2023-05-14T03:28:37;98671.88;;;9.75;100.00
78741;BME280;68062;48.726;9.370;2023-05-14T03:31:04;98675.28;;;9.56;100.00
78741;BME280;68062;48.726;9.370;2023-05-14T03:33:31;98677.84;;;9.58;100.00
78741;BME280;68062;48.726;9.370;2023-05-14T03:35:58;98631.66;;;9.27;100.00
78741;BME280;68062;48.726;9.370;2023-05-14T03:38:24;98671.00;;;9.51;100.00
78741;BME280;68062;48.726;9.370;2023-05-14T03:40:52;98676.16;;;9.74;100.00
78741;BME280;68062;48.726;9.370;2023-05-14T03:43:19;98679.56;;;9.81;100.00
78741;BME280;68062;48.726;9.370;2023-05-14T03:45:46;98673.59;;;9.86;100.00
78741;BME280;68062;48.726;9.370;2023-05-14T03:48:17;98669.31;;;9.85;100.00
78741;BME280;68062;48.726;9.370;2023-05-14T03:50:44;98670.16;;;9.86;100.00
78741;BME280;68062;48.726;9.370;2023-05-14T03:53:11;98677.88;;;9.84;100.00
78741;BME280;68062;48.726;9.370;2023-05-14T03:55:38;98667.59;;;9.69;100.00
78741;BME280;68062;48.726;9.370;2023-05-14T03:58:10;98625.63;;;9.31;100.00
78741;BME280;68062;48.726;9.370;2023-05-14T04:00:39;98670.16;;;9.53;100.00
78741;BME280;68062;48.726;9.370;2023-05-14T04:03:06;98670.16;;;9.63;100.00
78741;BME280;68062;48.726;9.370;2023-05-14T04:05:32;98662.44;;;9.61;100.00
78741;BME280;68062;48.726;9.370;2023-05-14T04:08:00;98665.88;;;9.62;100.00
78741;BME280;68062;48.726;9.370;2023-05-14T04:10:27;98669.31;;;9.70;100.00
78741;BME280;68062;48.726;9.370;2023-05-14T04:12:53;98675.31;;;9.78;100.00
78741;BME280;68062;48.726;9.370;2023-05-14T04:15:24;98667.59;;;9.63;100.00
78741;BME280;68062;48.726;9.370;2023-05-14T04:17:51;98664.16;;;9.54;100.00
78741;BME280;68062;48.726;9.370;2023-05-14T04:20:17;98651.31;;;9.59;100.00
78741;BME280;68062;48.726;9.370;2023-05-14T04:22:44;98659.03;;;9.84;100.00
78741;BME280;68062;48.726;9.370;2023-05-14T04:25:11;98658.16;;;9.99;100.00
78741;BME280;68062;48.726;9.370;2023-05-14T04:27:37;98659.00;;;10.02;100.00
78741;BME280;68062;48.726;9.370;2023-05-14T04:30:06;98664.16;;;10.02;100.00
78741;BME280;68062;48.726;9.370;2023-05-14T04:32:34;98663.28;;;9.94;100.00
78741;BME280;68062;48.726;9.370;2023-05-14T04:35:02;98653.03;;;9.85;100.00
78741;BME280;68062;48.726;9.370;2023-05-14T04:37:29;98659.03;;;9.75;100.00
78741;BME280;68062;48.726;9.370;2023-05-14T04:39:57;98659.88;;;9.67;100.00
78741;BME280;68062;48.726;9.370;2023-05-14T04:42:24;98662.44;;;9.74;100.00
78741;BME280;68062;48.726;9.370;2023-05-14T04:44:51;98658.16;;;9.91;100.00
78741;BME280;68062;48.726;9.370;2023-05-14T04:47:18;98649.59;;;9.86;100.00
78741;BME280;68062;48.726;9.370;2023-05-14T04:49:47;98652.19;;;9.83;100.00
78741;BME280;68062;48.726;9.370;2023-05-14T04:52:13;98657.31;;;9.78;100.00
78741;BME280;68062;48.726;9.370;2023-05-14T04:54:40;98653.03;;;9.91;100.00
78741;BME280;68062;48.726;9.370;2023-05-14T04:57:06;98660.69;;;10.19;100.00
78741;BME280;68062;48.726;9.370;2023-05-14T04:59:33;98660.72;;;10.04;100.00
78741;BME280;68062;48.726;9.370;2023-05-14T05:01:59;98663.31;;;10.05;100.00
78741;BME280;68062;48.726;9.370;2023-05-14T05:04:26;98669.28;;;10.20;100.00
78741;BME280;68062;48.726;9.370;2023-05-14T05:06:54;98663.25;;;10.27;100.00
78741;BME280;68062;48.726;9.370;2023-05-14T05:09:20;98664.97;;;10.17;100.00
78741;BME280;68062;48.726;9.370;2023-05-14T05:11:47;98664.13;;;10.24;100.00
78741;BME280;68062;48.726;9.370;2023-05-14T05:14:14;98665.81;;;10.28;100.00
78741;BME280;68062;48.726;9.370;2023-05-14T05:16:40;98670.13;;;10.22;100.00
78741;BME280;68062;48.726;9.370;2023-05-14T05:19:07;98665.84;;;10.13;100.00
78741;BME280;68062;48.726;9.370;2023-05-14T05:21:34;98664.16;;;10.02;100.00
78741;BME280;68062;48.726;9.370;2023-05-14T05:24:02;98662.41;;;10.20;100.00
78741;BME280;68062;48.726;9.370;2023-05-14T05:26:28;98663.22;;;10.38;100.00
78741;BME280;68062;48.726;9.370;2023-05-14T05:28:56;98667.47;;;10.64;100.00
78741;BME280;68062;48.726;9.370;2023-05-14T05:31:22;98657.94;;;10.86;100.00
78741;BME280;68062;48.726;9.370;2023-05-14T05:33:49;98665.63;;;10.91;100.00
78741;BME280;68062;48.726;9.370;2023-05-14T05:36:16;98661.31;;;10.94;100.00
78741;BME280;68062;48.726;9.370;2023-05-14T05:38:42;98659.56;;;11.02;100.00
78741;BME280;68062;48.726;9.370;2023-05-14T05:41:10;98662.16;;;11.01;100.00
78741;BME280;68062;48.726;9.370;2023-05-14T05:43:37;98664.72;;;11.01;100.00
78741;BME280;68062;48.726;9.370;2023-05-14T05:46:03;98665.53;;;11.12;100.00
78741;BME280;68062;48.726;9.370;2023-05-14T05:48:30;98660.38;;;11.08;100.00
78741;BME280;68062;48.726;9.370;2023-05-14T05:50:57;98664.75;;;10.98;100.00
78741;BME280;68062;48.726;9.370;2023-05-14T05:53:23;98665.56;;;11.06;100.00
78741;BME280;68062;48.726;9.370;2023-05-14T05:55:50;98666.41;;;11.07;100.00
78741;BME280;68062;48.726;9.370;2023-05-14T05:58:18;98666.41;;;11.08;100.00
78741;BME280;68062;48.726;9.370;2023-05-14T06:00:45;98671.50;;;11.17;100.00
78741;BME280;68062;48.726;9.370;2023-05-14T06:03:13;98668.97;;;11.11;100.00
78741;BME280;68062;48.726;9.370;2023-05-14T06:05:40;98662.81;;;11.32;100.00
78741;BME280;68062;48.726;9.370;2023-05-14T06:08:07;98659.34;;;11.37;100.00
78741;BME280;68062;48.726;9.370;2023-05-14T06:10:34;98656.78;;;11.37;100.00
78741;BME280;68062;48.726;9.370;2023-05-14T06:13:01;98660.22;;;11.36;100.00
78741;BME280;68062;48.726;9.370;2023-05-14T06:15:29;98661.16;;;11.25;100.00
78741;BME280;68062;48.726;9.370;2023-05-14T06:17:56;98658.53;;;11.33;100.00
78741;BME280;68062;48.726;9.370;2023-05-14T06:20:23;98636.28;;;11.23;100.00
78741;BME280;68062;48.726;9.370;2023-05-14T06:22:49;98672.16;;;11.49;100.00
78741;BME280;68062;48.726;9.370;2023-05-14T06:25:16;98672.00;;;11.68;100.00
78741;BME280;68062;48.726;9.370;2023-05-14T06:27:43;98663.31;;;11.81;100.00
78741;BME280;68062;48.726;9.370;2023-05-14T06:30:11;98664.22;;;11.78;100.00
78741;BME280;68062;48.726;9.370;2023-05-14T06:32:39;98665.00;;;11.87;100.00
78741;BME280;68062;48.726;9.370;2023-05-14T06:35:07;98652.06;;;11.91;100.00
78741;BME280;68062;48.726;9.370;2023-05-14T06:37:33;98664.13;;;11.91;100.00
78741;BME280;68062;48.726;9.370;2023-05-14T06:40:01;98657.13;;;12.02;100.00
78741;BME280;68062;48.726;9.370;2023-05-14T06:42:27;98664.75;;;12.16;100.00
78741;BME280;68062;48.726;9.370;2023-05-14T06:44:54;98667.72;;;11.68;100.00
78741;BME280;68062;48.726;9.370;2023-05-14T06:47:21;98668.31;;;11.98;100.00
78741;BME280;68062;48.726;9.370;2023-05-14T06:49:48;98663.28;;;11.89;100.00
78741;BME280;68062;48.726;9.370;2023-05-14T06:52:15;98664.88;;;11.99;100.00
78741;BME280;68062;48.726;9.370;2023-05-14T06:54:42;98670.03;;;11.99;100.00
78741;BME280;68062;48.726;9.370;2023-05-14T06:57:08;98671.84;;;11.89;100.00
78741;BME280;68062;48.726;9.370;2023-05-14T06:59:35;98672.72;;;11.90;100.00
78741;BME280;68062;48.726;9.370;2023-05-14T07:02:02;98657.84;;;12.17;100.00
78741;BME280;68062;48.726;9.370;2023-05-14T07:04:28;98658.22;;;12.64;100.00
78741;BME280;68062;48.726;9.370;2023-05-14T07:06:56;98664.22;;;12.66;100.00
78741;BME280;68062;48.726;9.370;2023-05-14T07:09:23;98660.75;;;12.69;100.00
78741;BME280;68062;48.726;9.370;2023-05-14T07:11:49;98664.91;;;12.79;100.00
78741;BME280;68062;48.726;9.370;2023-05-14T07:14:16;98663.16;;;12.81;100.00
78741;BME280;68062;48.726;9.370;2023-05-14T07:16:43;98658.09;;;12.75;100.00
78741;BME280;68062;48.726;9.370;2023-05-14T07:19:11;98661.44;;;12.83;100.00
78741;BME280;68062;48.726;9.370;2023-05-14T07:21:38;98658.72;;;12.94;100.00
78741;BME280;68062;48.726;9.370;2023-05-14T07:24:06;98643.03;;;13.08;100.00
78741;BME280;68062;48.726;9.370;2023-05-14T07:26:32;98640.63;;;12.95;100.00
78741;BME280;68062;48.726;9.370;2023-05-14T07:28:59;98642.16;;;13.09;100.00
78741;BME280;68062;48.726;9.370;2023-05-14T07:31:26;98641.97;;;13.21;100.00
78741;BME280;68062;48.726;9.370;2023-05-14T07:33:52;98647.03;;;13.29;100.00
78741;BME280;68062;48.726;9.370;2023-05-14T07:36:19;98643.00;;;13.11;100.00
78741;BME280;68062;48.726;9.370;2023-05-14T07:38:45;98643.69;;;13.24;100.00
78741;BME280;68062;48.726;9.370;2023-05-14T07:41:13;98636.94;;;13.14;100.00
78741;BME280;68062;48.726;9.370;2023-05-14T07:43:40;98642.06;;;13.17;100.00
78741;BME280;68062;48.726;9.370;2023-05-14T07:46:07;98642.91;;;13.17;100.00
78741;BME280;68062;48.726;9.370;2023-05-14T07:48:33;98636.72;;;13.26;100.00
78741;BME280;68062;48.726;9.370;2023-05-14T07:50:59;98642.25;;;13.62;97.97
78741;BME280;68062;48.726;9.370;2023-05-14T07:53:26;98637.84;;;13.67;97.09
78741;BME280;68062;48.726;9.370;2023-05-14T07:55:53;98635.97;;;13.77;95.63
78741;BME280;68062;48.726;9.370;2023-05-14T07:58:21;98634.03;;;13.90;97.68
78741;BME280;68062;48.726;9.370;2023-05-14T08:00:48;98630.41;;;14.01;96.93
78741;BME280;68062;48.726;9.370;2023-05-14T08:03:14;98638.66;;;14.21;95.24
78741;BME280;68062;48.726;9.370;2023-05-14T08:05:41;98622.13;;;14.74;90.68
78741;BME280;68062;48.726;9.370;2023-05-14T08:08:08;98622.94;;;14.75;88.87
78741;BME280;68062;48.726;9.370;2023-05-14T08:10:34;98618.88;;;15.05;87.47
78741;BME280;68062;48.726;9.370;2023-05-14T08:13:01;98624.06;;;15.04;88.48
78741;BME280;68062;48.726;9.370;2023-05-14T08:15:29;98619.78;;;15.40;83.46
78741;BME280;68062;48.726;9.370;2023-05-14T08:17:55;98624.38;;;15.29;84.08
78741;BME280;68062;48.726;9.370;2023-05-14T08:20:28;98628.66;;;15.66;81.16
78741;BME280;68062;48.726;9.370;2023-05-14T08:22:55;98621.19;;;15.54;81.60
78741;BME280;68062;48.726;9.370;2023-05-14T08:25:22;98622.09;;;15.89;79.35
78741;BME280;68062;48.726;9.370;2023-05-14T08:27:48;98622.50;;;16.38;79.99
78741;BME280;68062;48.726;9.370;2023-05-14T08:30:15;98616.38;;;17.29;76.35
78741;BME280;68062;48.726;9.370;2023-05-14T08:32:43;98620.25;;;17.97;72.72
78741;BME280;68062;48.726;9.370;2023-05-14T08:35:10;98613.16;;;18.02;71.00
78741;BME280;68062;48.726;9.370;2023-05-14T08:37:37;98612.47;;;17.70;71.02
78741;BME280;68062;48.726;9.370;2023-05-14T08:40:04;98600.47;;;17.39;73.20
78741;BME280;68062;48.726;9.370;2023-05-14T08:42:33;98614.47;;;17.61;72.44
78741;BME280;68062;48.726;9.370;2023-05-14T08:45:01;98613.78;;;17.01;73.80
78741;BME280;68062;48.726;9.370;2023-05-14T08:47:29;98605.88;;;17.32;73.50
78741;BME280;68062;48.726;9.370;2023-05-14T08:50:00;98614.03;;;17.48;72.39
78741;BME280;68062;48.726;9.370;2023-05-14T08:52:29;98610.91;;;16.50;78.99
78741;BME280;68062;48.726;9.370;2023-05-14T08:54:58;98612.25;;;16.94;75.60
78741;BME280;68062;48.726;9.370;2023-05-14T08:57:27;98603.84;;;16.85;76.96
78741;BME280;68062;48.726;9.370;2023-05-14T08:59:55;98607.09;;;17.22;75.20
78741;BME280;68062;48.726;9.370;2023-05-14T09:02:24;98599.06;;;17.01;77.55
78741;BME280;68062;48.726;9.370;2023-05-14T09:04:54;98600.31;;;16.58;78.69
78741;BME280;68062;48.726;9.370;2023-05-14T09:07:23;98596.59;;;16.67;78.04
78741;BME280;68062;48.726;9.370;2023-05-14T09:09:51;98590.84;;;15.94;79.37
78741;BME280;68062;48.726;9.370;2023-05-14T09:12:18;98602.38;;;16.46;78.11
78741;BME280;68062;48.726;9.370;2023-05-14T09:14:47;98594.84;;;15.36;82.73
78741;BME280;68062;48.726;9.370;2023-05-14T09:17:14;98596.94;;;15.91;81.79
78741;BME280;68062;48.726;9.370;2023-05-14T09:19:45;98592.13;;;16.10;79.55
78741;BME280;68062;48.726;9.370;2023-05-14T09:22:14;98590.72;;;15.27;84.01
78741;BME280;68062;48.726;9.370;2023-05-14T09:24:43;98588.78;;;15.72;82.58
78741;BME280;68062;48.726;9.370;2023-05-14T09:27:17;98580.91;;;15.75;79.96
78741;BME280;68062;48.726;9.370;2023-05-14T09:29:44;98585.53;;;15.64;80.57
78741;BME280;68062;48.726;9.370;2023-05-14T09:32:11;98589.31;;;15.14;83.77
78741;BME280;68062;48.726;9.370;2023-05-14T09:37:53;98598.50;;;14.90;85.70
78741;BME280;68062;48.726;9.370;2023-05-14T09:40:22;98586.75;;;15.12;84.39
78741;BME280;68062;48.726;9.370;2023-05-14T09:42:49;98590.78;;;15.26;83.50
78741;BME280;68062;48.726;9.370;2023-05-14T09:49:02;98582.03;;;15.99;80.28
78741;BME280;68062;48.726;9.370;2023-05-14T09:51:29;98578.13;;;16.16;81.35
78741;BME280;68062;48.726;9.370;2023-05-14T09:53:56;98571.66;;;16.91;75.71
78741;BME280;68062;48.726;9.370;2023-05-14T09:56:25;98567.44;;;16.87;74.48
78741;BME280;68062;48.726;9.370;2023-05-14T09:58:52;98567.00;;;17.29;73.06
78741;BME280;68062;48.726;9.370;2023-05-14T10:01:19;98569.34;;;17.64;71.17
78741;BME280;68062;48.726;9.370;2023-05-14T10:03:47;98571.38;;;17.54;73.45
78741;BME280;68062;48.726;9.370;2023-05-14T10:06:16;98560.56;;;18.17;68.61
78741;BME280;68062;48.726;9.370;2023-05-14T10:08:46;98559.19;;;18.78;66.74
78741;BME280;68062;48.726;9.370;2023-05-14T10:11:15;98542.56;;;18.81;65.93
78741;BME280;68062;48.726;9.370;2023-05-14T10:13:51;98551.06;;;18.64;66.89
78741;BME280;68062;48.726;9.370;2023-05-14T10:16:26;98561.69;;;18.35;68.47
78741;BME280;68062;48.726;9.370;2023-05-14T10:18:59;98549.16;;;17.96;68.05
78741;BME280;68062;48.726;9.370;2023-05-14T10:21:28;98550.75;;;19.38;65.27
78741;BME280;68062;48.726;9.370;2023-05-14T10:23:56;98540.84;;;19.26;65.78
78741;BME280;68062;48.726;9.370;2023-05-14T10:26:24;98544.44;;;19.44;65.22
78741;BME280;68062;48.726;9.370;2023-05-14T10:28:52;98544.25;;;18.14;70.34
78741;BME280;68062;48.726;9.370;2023-05-14T10:31:22;98535.13;;;18.94;65.63
78741;BME280;68062;48.726;9.370;2023-05-14T10:33:49;98532.81;;;18.42;66.86
78741;BME280;68062;48.726;9.370;2023-05-14T10:36:17;98529.41;;;18.16;68.68
78741;BME280;68062;48.726;9.370;2023-05-14T10:38:44;98538.22;;;17.86;68.42
78741;BME280;68062;48.726;9.370;2023-05-14T10:41:11;98537.03;;;17.71;68.33
78741;BME280;68062;48.726;9.370;2023-05-14T10:43:40;98535.03;;;17.78;68.06
78741;BME280;68062;48.726;9.370;2023-05-14T10:46:10;98536.72;;;17.80;68.48
78741;BME280;68062;48.726;9.370;2023-05-14T10:48:38;98531.34;;;18.11;66.60
78741;BME280;68062;48.726;9.370;2023-05-14T10:51:07;98527.19;;;18.52;66.10
78741;BME280;68062;48.726;9.370;2023-05-14T10:53:37;98520.47;;;18.91;65.45
78741;BME280;68062;48.726;9.370;2023-05-14T10:56:05;98527.31;;;18.02;66.92
78741;BME280;68062;48.726;9.370;2023-05-14T10:58:36;98528.69;;;17.61;67.44
78741;BME280;68062;48.726;9.370;2023-05-14T11:01:05;98533.31;;;17.78;66.84
78741;BME280;68062;48.726;9.370;2023-05-14T11:03:38;98529.31;;;18.65;64.57
78741;BME280;68062;48.726;9.370;2023-05-14T11:06:06;98523.38;;;17.90;65.87
78741;BME280;68062;48.726;9.370;2023-05-14T11:08:33;98511.81;;;18.68;64.42
78741;BME280;68062;48.726;9.370;2023-05-14T11:10:59;98497.50;;;19.23;59.84
78741;BME280;68062;48.726;9.370;2023-05-14T11:13:26;98492.63;;;20.54;57.84
78741;BME280;68062;48.726;9.370;2023-05-14T11:15:54;98500.38;;;21.29;54.52
78741;BME280;68062;48.726;9.370;2023-05-14T11:18:27;98495.97;;;20.58;56.44
78741;BME280;68062;48.726;9.370;2023-05-14T11:20:58;98501.00;;;19.64;59.12
78741;BME280;68062;48.726;9.370;2023-05-14T11:23:25;98491.56;;;19.20;60.88
78741;BME280;68062;48.726;9.370;2023-05-14T11:25:53;98466.84;;;19.49;59.30
78741;BME280;68062;48.726;9.370;2023-05-14T11:28:20;98486.69;;;19.33;60.35
78741;BME280;68062;48.726;9.370;2023-05-14T11:30:47;98479.88;;;19.70;59.56
78741;BME280;68062;48.726;9.370;2023-05-14T11:33:14;98475.78;;;20.98;57.15
78741;BME280;68062;48.726;9.370;2023-05-14T11:35:42;98468.19;;;20.19;56.22
78741;BME280;68062;48.726;9.370;2023-05-14T11:38:14;98477.88;;;20.72;56.30
78741;BME280;68062;48.726;9.370;2023-05-14T11:40:42;98440.59;;;21.90;53.85
78741;BME280;68062;48.726;9.370;2023-05-14T11:43:08;98463.41;;;22.85;52.64
78741;BME280;68062;48.726;9.370;2023-05-14T11:45:35;98475.91;;;21.30;54.52
78741;BME280;68062;48.726;9.370;2023-05-14T11:48:10;98469.28;;;21.58;52.49
78741;BME280;68062;48.726;9.370;2023-05-14T11:50:39;98477.81;;;21.62;51.74
78741;BME280;68062;48.726;9.370;2023-05-14T11:53:05;98476.03;;;22.14;51.45
78741;BME280;68062;48.726;9.370;2023-05-14T11:55:34;98463.69;;;21.49;51.04
78741;BME280;68062;48.726;9.370;2023-05-14T11:58:01;98457.03;;;20.71;53.28
78741;BME280;68062;48.726;9.370;2023-05-14T12:00:27;98456.13;;;21.09;54.11
78741;BME280;68062;48.726;9.370;2023-05-14T12:02:55;98452.69;;;22.09;52.03
78741;BME280;68062;48.726;9.370;2023-05-14T12:05:22;98450.66;;;21.98;51.96
78741;BME280;68062;48.726;9.370;2023-05-14T12:07:49;98438.44;;;22.31;51.52
78741;BME280;68062;48.726;9.370;2023-05-14T12:10:16;98453.09;;;22.82;50.16
78741;BME280;68062;48.726;9.370;2023-05-14T12:12:46;98463.69;;;20.96;52.67
78741;BME280;68062;48.726;9.370;2023-05-14T12:15:14;98436.59;;;19.66;55.61
78741;BME280;68062;48.726;9.370;2023-05-14T12:17:42;98450.97;;;19.35;56.67
78741;BME280;68062;48.726;9.370;2023-05-14T12:20:10;98446.22;;;19.03;58.75
78741;BME280;68062;48.726;9.370;2023-05-14T12:22:37;98439.22;;;19.45;55.83
78741;BME280;68062;48.726;9.370;2023-05-14T12:25:09;98424.09;;;19.33;58.02
78741;BME280;68062;48.726;9.370;2023-05-14T12:27:37;98435.44;;;19.52;56.96
78741;BME280;68062;48.726;9.370;2023-05-14T12:30:06;98428.38;;;19.54;57.01
78741;BME280;68062;48.726;9.370;2023-05-14T12:32:34;98431.97;;;19.73;55.77
78741;BME280;68062;48.726;9.370;2023-05-14T12:35:02;98431.63;;;19.99;54.82
78741;BME280;68062;48.726;9.370;2023-05-14T12:37:28;98425.56;;;20.37;55.52
78741;BME280;68062;48.726;9.370;2023-05-14T12:39:55;98420.19;;;21.30;51.82
78741;BME280;68062;48.726;9.370;2023-05-14T12:42:22;98409.44;;;22.34;49.17
78741;BME280;68062;48.726;9.370;2023-05-14T12:44:48;98405.88;;;23.72;47.83
78741;BME280;68062;48.726;9.370;2023-05-14T12:47:16;98399.13;;;23.08;47.90
78741;BME280;68062;48.726;9.370;2023-05-14T12:49:43;98398.50;;;22.74;47.83
78741;BME280;68062;48.726;9.370;2023-05-14T12:52:09;98397.75;;;21.42;51.25
78741;BME280;68062;48.726;9.370;2023-05-14T12:54:36;98414.47;;;20.69;53.32
78741;BME280;68062;48.726;9.370;2023-05-14T12:57:04;98408.81;;;20.96;53.48
78741;BME280;68062;48.726;9.370;2023-05-14T12:59:31;98402.78;;;20.22;54.25
78741;BME280;68062;48.726;9.370;2023-05-14T13:01:58;98398.25;;;19.87;54.09
78741;BME280;68062;48.726;9.370;2023-05-14T13:04:27;98386.97;;;20.06;53.66
78741;BME280;68062;48.726;9.370;2023-05-14T13:06:54;98384.09;;;19.74;56.45